Nearby METAR Reports

 

CYUL - Montreal/Dorval, Quebec, Canada
Distance from station: ENE 6km
Updated: 07/04/2022 22:00 EDT
Overcast
Overcast
 Wind from WSW
Wind: WSW 13 km/h
Temperature: 21°C
Dew Point: 13°C
Humidity: 60%
Barometer: 1017.6 hPa
Clouds: Overcast
Visibility: 24 km
Cloud details: Overcast 7620 m
2022/07/05 02:00 CYUL 050200Z 24007KT 15SM OVC250 21/13 A3005 RMK CS8 SLP176 DENSITY ALT 700FT
CWVQ - Ste Anne De Bell, Quebec, Canada
Distance from station: WSW 10km
Updated: 07/04/2022 22:00 EDT

 Wind from WSW
Wind: WSW 13 km/h
Temperature: 22°C
Dew Point: 13°C
Humidity: 57%
2022/07/05 02:00 CWVQ 050200Z AUTO 24007KT 22/13 RMK AO1 SLP178 T02170130 53006
 
CWTA - Mc Tavish (aut), Quebec, Canada
Distance from station: ENE 18km
Updated: 07/04/2022 22:00 EDT

 Wind from WSW
Wind: WSW 2 km/h
Temperature: 20°C
Dew Point: 12°C
Humidity: 60%
2022/07/05 02:00 CWTA 050200Z AUTO 25001KT 20/12 RMK AO1 SLP176 T02020120 53005
CYMX - Montreal/Mirabel, Quebec, Canada
Distance from station: NW 29km
Updated: 07/04/2022 22:00 EDT
Partly cloudy
Partly cloudy
 Wind from WSW
Wind: WSW 6 km/h
Temperature: 19°C
Dew Point: 11°C
Humidity: 60%
Barometer: 1017.6 hPa
Clouds: Partly cloudy
Visibility: 40 km
Cloud details: Partly cloudy 7620 m
2022/07/05 02:00 CYMX 050200Z 25003KT 230V300 25SM SCT250 19/11 A3005 RMK CI4 SLP177 DENSITY ALT 800FT
 
CYHU - Saint Hubert Arp, Quebec, Canada
Distance from station: ENE 31km
Updated: 07/04/2022 22:00 EDT
Clear
Clear
 Wind from SW
Wind: SW 9 km/h
Temperature: 20°C
Dew Point: 13°C
Humidity: 64%
Barometer: 1017.3 hPa
Clouds: Clear
Visibility: 14 km
2022/07/05 02:00 CYHU 050200Z AUTO 22005KT 9SM CLR 20/13 A3004 RMK SLP174 DENSITY ALT 700FT
CWIT - St Clothilde (a, Quebec, Canada
Distance from station: SSE 33km
Updated: 07/04/2022 22:00 EDT

 Wind from WSW
Wind: WSW 4 km/h
Temperature: 19°C
Dew Point: 13°C
Humidity: 68%
2022/07/05 02:00 CWIT 050200Z AUTO 24002KT 19/13 RMK AO1 SLP178 T01940130 53006
 
CWIZ - L'acadie, Quebec, Canada
Distance from station: ESE 41km
Updated: 07/04/2022 22:00 EDT

 Wind from SSW
Wind: SSW 4 km/h
Temperature: 16°C
Dew Point: 14°C
Humidity: 88%
2022/07/05 02:00 CWIZ 050200Z AUTO 20002KT 16/14 RMK AO1 T01550139
CWHM - Varennes, Quebec, Canada
Distance from station: NE 45km
Updated: 10/25/2016 10:00 EDT
NOT Current

 Wind from W
Wind: W 19 km/h, Gust: 28 km/h
Temperature: 4°C
Wind Chill: 0°C
Dew Point: -2°C
Humidity: 65%
2016/10/25 14:00 CWHM 251400Z AUTO 28010G15KT 04/M02 RMK AO1 PK WND 28018/1302 T00391017
 
CWEW - L'assomption, Quebec, Canada
Distance from station: NE 50km
Updated: 07/04/2022 22:00 EDT

 Wind from SW
Wind: SW 4 km/h
Temperature: 19°C
Dew Point: 11°C
Humidity: 60%
2022/07/05 02:00 CWEW 050200Z AUTO 23002KT 19/11 RMK AO1 SLP179 T01920113 53007
CWBZ - St Anicet, Quebec, Canada
Distance from station: SW 52km
Updated: 07/04/2022 22:00 EDT

 Wind from WSW
Wind: WSW 7 km/h
Temperature: 20°C
Dew Point: 13°C
Humidity: 64%
2022/07/05 02:00 CWBZ 050200Z AUTO 24004KT 20/13 RMK AO1 SLP177 T02000130 53006
 
KFSO - Highgate, Vermont, USA
Distance from station: SE 79km
Updated: 07/04/2022 22:15 EDT
Clear
Clear
 Wind from calm
Wind: Calm
Temperature: 19°C
Dew Point: 14°C
Humidity: 73%
Barometer: 1018.6 hPa
Clouds: Clear
Visibility: 16 km
2022/07/05 02:15 KFSO 050215Z AUTO 00000KT 10SM CLR 19/14 A3008 RMK AO2 T01900139
CMGB - Granby, Quebec, Canada
Distance from station: E 81km
Updated: 07/04/2022 22:00 EDT

 Wind from calm
Wind: Calm
Temperature: 17°C
Dew Point: 13°C
Humidity: 77%
2022/07/05 02:00 CMGB 050200Z AUTO 00000KT 17/13 RMK AO1 SLP180 T01700129 53002
 
CWJT - St Jovite (autob, Quebec, Canada
Distance from station: NW 88km
Updated: 07/04/2022 22:00 EDT

 Wind from ENE
Wind: ENE 2 km/h
Temperature: 16°C
Dew Point: 13°C
Humidity: 83%
2022/07/05 02:00 CWJT 050200Z AUTO 07001KT 16/13 RMK AO1 SLP172 T01630129 53007
CWFQ - Frelighsburg, Quebec, Canada
Distance from station: ESE 90km
Updated: 07/04/2022 22:00 EDT

 Wind from S
Wind: S 4 km/h
Temperature: 17°C
Dew Point: 11°C
Humidity: 68%
2022/07/05 02:00 CWFQ 050200Z AUTO 19002KT 17/11 RMK AO1 SLP185 T01740114 53003
 
KPBG - Plattsburgh Afb, New York, USA
Distance from station: SSE 93km
Updated: 07/04/2022 21:53 EDT
Clear
Clear
 Wind from calm
Wind: Calm
Temperature: 18°C
Dew Point: 13°C
Humidity: 73%
Barometer: 1018.3 hPa
Clouds: Clear
Visibility: 16 km
2022/07/05 01:53 KPBG 050153Z AUTO 00000KT 10SM CLR 18/13 A3007 RMK AO2 SLP184 T01780133
KMSS - Massena, New York, USA
Distance from station: SW 100km
Updated: 07/04/2022 21:53 EDT
Clear
Clear
 Wind from SSW
Wind: SSW 6 km/h
Temperature: 19°C
Dew Point: 13°C
Humidity: 68%
Barometer: 1018.6 hPa
Clouds: Clear
Visibility: 16 km
2022/07/05 01:53 KMSS 050153Z AUTO 21003KT 10SM CLR 19/13 A3008 RMK AO2 SLP187 T01890128
 
CWBS - Lac St Pierre (a, Quebec, Canada
Distance from station: NE 106km
Updated: 07/04/2022 22:00 EDT

 Wind from E
Wind: E 9 km/h
Temperature: 21°C
Dew Point: 14°C
Humidity: 64%
2022/07/05 02:00 CWBS 050200Z AUTO 08005KT 21/14 RMK AO1 T02050140
KBTV - Burlington, Vermont, USA
Distance from station: SSE 121km
Updated: 07/04/2022 21:54 EDT
Clear
Clear
 Wind from SSE
Wind: SSE 6 km/h
Temperature: 20°C
Dew Point: 13°C
Humidity: 64%
Barometer: 1018.6 hPa
Clouds: Clear
Visibility: 16 km
2022/07/05 01:54 KBTV 050154Z 16003KT 10SM CLR 20/13 A3008 RMK AO2 SLP186 T02000133
 
KSLK - Saranac Lake, New York, USA
Distance from station: SSW 121km
Updated: 07/04/2022 21:51 EDT
Clear
Clear
 Wind from calm
Wind: Calm
Temperature: 13°C
Dew Point: 11°C
Humidity: 88%
Barometer: 1020.3 hPa
Clouds: Clear
Visibility: 16 km
2022/07/05 01:51 KSLK 050151Z AUTO 00000KT 10SM CLR 13/11 A3013 RMK AO2 SLP198 T01280111
CWNQ - Nicolet (autob), Quebec, Canada
Distance from station: NE 123km
Updated: 07/04/2022 22:00 EDT

 Wind from ESE
Wind: ESE 2 km/h
Temperature: 17°C
Dew Point: 15°C
Humidity: 88%
2022/07/05 02:00 CWNQ 050200Z AUTO 11001KT 17/15 RMK AO1 SLP172 T01650150 50006
 
KMWN - Mount Washington, New Hampshire, USA
Distance from station: SE 237km
Updated: 07/04/2022 21:57 EDT
Mostly cloudy
Mostly cloudy
 Wind from WNW
Wind: WNW 69 km/h
Temperature: 6°C
Wind Chill: -1°C
Dew Point: 3°C
Humidity: 81%
Clouds: Mostly cloudy
Visibility: 128 km
Cloud details: Few Clouds 1219 m
Few Clouds 2438 m
Partly cloudy 3658 m
Mostly cloudy 4572 m
2022/07/05 01:57 KMWN 050157Z 30037KT 80SM FEW040 FEW080 SCT120 BKN150 06/03 RMK FIREWORKS BLO STA ALQDS
CYVR - Vancouver Intl A, British Columbia, Canada
Distance from station: NW 3676km
Updated: 07/04/2022 22:00 EDT
Mostly cloudy
Mostly cloudy
 Wind from WNW
Wind: WNW 6 km/h
Temperature: 17°C
Dew Point: 14°C
Humidity: 83%
Barometer: 1014.9 hPa
Clouds: Mostly cloudy
Visibility: 48 km
Cloud details: Few Clouds 610 m
Few Clouds 762 m
Mostly cloudy 2560 m
Mostly cloudy 3353 m
Mostly cloudy 4267 m
2022/07/05 02:00 CYVR 050200Z 30003KT 30SM FEW020 FEW025 BKN084 BKN110 BKN140 17/14 A2997 RMK CU1CU1AC4AC2AC1 CU TR AC TR SLP152 DENSITY ALT 200FT